sensor_id;sensor_type;location;lat;lon;timestamp;pressure;altitude;pressure_sealevel;temperature;humidity
12360;BME280;6244;51.460;7.090;2022-07-17T00:00:00;99475.00;;;13.26;79.16
12360;BME280;6244;51.460;7.090;2022-07-17T00:04:58;99472.63;;;13.22;79.29
12360;BME280;6244;51.460;7.090;2022-07-17T00:09:54;99472.47;;;13.25;80.28
12360;BME280;6244;51.460;7.090;2022-07-17T00:14:51;99468.06;;;13.25;80.20
12360;BME280;6244;51.460;7.090;2022-07-17T00:19:47;99475.19;;;13.23;80.28
12360;BME280;6244;51.460;7.090;2022-07-17T00:24:45;99458.53;;;13.23;80.30
12360;BME280;6244;51.460;7.090;2022-07-17T00:29:43;99459.56;;;13.20;80.44
12360;BME280;6244;51.460;7.090;2022-07-17T00:34:40;99461.41;;;13.04;79.75
12360;BME280;6244;51.460;7.090;2022-07-17T00:39:36;99467.44;;;12.91;78.95
12360;BME280;6244;51.460;7.090;2022-07-17T00:44:34;99462.88;;;12.78;81.39
12360;BME280;6244;51.460;7.090;2022-07-17T00:49:30;99471.63;;;12.79;81.52
12360;BME280;6244;51.460;7.090;2022-07-17T00:54:28;99467.84;;;12.69;80.63
12360;BME280;6244;51.460;7.090;2022-07-17T00:59:26;99465.81;;;12.58;81.88
12360;BME280;6244;51.460;7.090;2022-07-17T01:04:25;99463.81;;;12.48;83.13
12360;BME280;6244;51.460;7.090;2022-07-17T01:09:21;99466.66;;;12.43;83.55
12360;BME280;6244;51.460;7.090;2022-07-17T01:14:18;99462.44;;;12.41;83.40
12360;BME280;6244;51.460;7.090;2022-07-17T01:19:15;99460.94;;;12.21;83.72
12360;BME280;6244;51.460;7.090;2022-07-17T01:24:13;99458.72;;;12.14;85.03
12360;BME280;6244;51.460;7.090;2022-07-17T01:29:11;99465.91;;;12.10;86.38
12360;BME280;6244;51.460;7.090;2022-07-17T01:34:09;99452.88;;;12.09;86.97
12360;BME280;6244;51.460;7.090;2022-07-17T01:39:07;99451.94;;;11.94;86.03
12360;BME280;6244;51.460;7.090;2022-07-17T01:44:05;99454.91;;;12.04;87.77
12360;BME280;6244;51.460;7.090;2022-07-17T01:49:03;99454.16;;;12.02;87.75
12360;BME280;6244;51.460;7.090;2022-07-17T01:54:00;99451.69;;;11.99;87.41
12360;BME280;6244;51.460;7.090;2022-07-17T01:58:56;99451.69;;;11.99;87.89
12360;BME280;6244;51.460;7.090;2022-07-17T02:03:54;99447.03;;;11.88;86.86
12360;BME280;6244;51.460;7.090;2022-07-17T02:08:51;99439.22;;;11.87;87.44
12360;BME280;6244;51.460;7.090;2022-07-17T02:13:47;99441.19;;;11.99;88.08
12360;BME280;6244;51.460;7.090;2022-07-17T02:18:44;99443.63;;;12.02;89.70
12360;BME280;6244;51.460;7.090;2022-07-17T02:23:42;99441.25;;;11.97;89.29
12360;BME280;6244;51.460;7.090;2022-07-17T02:28:38;99441.78;;;11.88;88.69
12360;BME280;6244;51.460;7.090;2022-07-17T02:33:35;99437.72;;;11.83;87.74
12360;BME280;6244;51.460;7.090;2022-07-17T02:38:31;99440.75;;;11.75;86.88
12360;BME280;6244;51.460;7.090;2022-07-17T02:43:29;99445.06;;;11.59;86.21
12360;BME280;6244;51.460;7.090;2022-07-17T02:48:26;99445.19;;;11.41;86.80
12360;BME280;6244;51.460;7.090;2022-07-17T02:53:22;99450.16;;;11.30;87.68
12360;BME280;6244;51.460;7.090;2022-07-17T02:58:19;99449.38;;;11.28;89.29
12360;BME280;6244;51.460;7.090;2022-07-17T03:03:17;99443.34;;;11.26;89.16
12360;BME280;6244;51.460;7.090;2022-07-17T03:08:15;99442.28;;;11.30;89.39
12360;BME280;6244;51.460;7.090;2022-07-17T03:13:11;99449.31;;;11.29;89.99
12360;BME280;6244;51.460;7.090;2022-07-17T03:18:08;99442.16;;;11.16;89.20
12360;BME280;6244;51.460;7.090;2022-07-17T03:23:06;99448.56;;;11.10;88.41
12360;BME280;6244;51.460;7.090;2022-07-17T03:28:02;99449.88;;;11.02;88.62
12360;BME280;6244;51.460;7.090;2022-07-17T03:32:59;99464.69;;;11.03;89.23
12360;BME280;6244;51.460;7.090;2022-07-17T03:37:55;99454.88;;;11.06;89.52
12360;BME280;6244;51.460;7.090;2022-07-17T03:42:53;99460.81;;;11.10;89.81
12360;BME280;6244;51.460;7.090;2022-07-17T03:47:50;99470.91;;;11.00;89.79
12360;BME280;6244;51.460;7.090;2022-07-17T03:52:46;99471.84;;;10.99;89.89
12360;BME280;6244;51.460;7.090;2022-07-17T03:57:43;99467.50;;;10.98;89.22
12360;BME280;6244;51.460;7.090;2022-07-17T04:02:41;99456.19;;;10.98;90.09
12360;BME280;6244;51.460;7.090;2022-07-17T04:07:37;99455.50;;;10.94;89.17
12360;BME280;6244;51.460;7.090;2022-07-17T04:12:35;99453.19;;;10.88;90.25
12360;BME280;6244;51.460;7.090;2022-07-17T04:17:31;99455.84;;;10.69;91.67
12360;BME280;6244;51.460;7.090;2022-07-17T04:22:29;99449.84;;;10.84;93.26
12360;BME280;6244;51.460;7.090;2022-07-17T04:27:26;99447.47;;;10.97;93.72
12360;BME280;6244;51.460;7.090;2022-07-17T04:32:22;99452.09;;;11.09;94.56
12360;BME280;6244;51.460;7.090;2022-07-17T04:37:19;99450.19;;;10.95;94.34
12360;BME280;6244;51.460;7.090;2022-07-17T04:42:17;99470.44;;;10.92;94.99
12360;BME280;6244;51.460;7.090;2022-07-17T04:47:13;99463.22;;;10.97;96.76
12360;BME280;6244;51.460;7.090;2022-07-17T04:52:10;99463.53;;;11.08;97.56
12360;BME280;6244;51.460;7.090;2022-07-17T04:57:06;99460.88;;;11.25;98.24
12360;BME280;6244;51.460;7.090;2022-07-17T05:02:04;99456.63;;;11.40;99.05
12360;BME280;6244;51.460;7.090;2022-07-17T05:07:01;99473.56;;;11.50;99.90
12360;BME280;6244;51.460;7.090;2022-07-17T05:11:58;99485.44;;;11.57;100.00
12360;BME280;6244;51.460;7.090;2022-07-17T05:16:54;99489.91;;;11.55;98.74
12360;BME280;6244;51.460;7.090;2022-07-17T05:21:52;99499.16;;;11.62;98.78
12360;BME280;6244;51.460;7.090;2022-07-17T05:26:48;99506.75;;;11.68;98.68
12360;BME280;6244;51.460;7.090;2022-07-17T05:31:45;99508.06;;;11.76;99.55
12360;BME280;6244;51.460;7.090;2022-07-17T05:36:41;99515.38;;;11.87;99.85
12360;BME280;6244;51.460;7.090;2022-07-17T05:41:39;99509.78;;;11.93;100.00
12360;BME280;6244;51.460;7.090;2022-07-17T05:46:36;99504.28;;;11.97;99.81
12360;BME280;6244;51.460;7.090;2022-07-17T05:51:33;99504.72;;;12.05;100.00
12360;BME280;6244;51.460;7.090;2022-07-17T05:56:29;99497.59;;;12.07;99.47
12360;BME280;6244;51.460;7.090;2022-07-17T06:01:27;99492.25;;;12.09;100.00
12360;BME280;6244;51.460;7.090;2022-07-17T06:06:24;99503.47;;;12.28;100.00
12360;BME280;6244;51.460;7.090;2022-07-17T06:11:20;99492.63;;;12.34;100.00
12360;BME280;6244;51.460;7.090;2022-07-17T06:16:17;99487.59;;;12.45;100.00
12360;BME280;6244;51.460;7.090;2022-07-17T06:21:14;99500.56;;;12.63;100.00
12360;BME280;6244;51.460;7.090;2022-07-17T06:26:11;99493.00;;;12.73;100.00
12360;BME280;6244;51.460;7.090;2022-07-17T06:31:08;99481.88;;;12.84;100.00
12360;BME280;6244;51.460;7.090;2022-07-17T06:36:04;99498.91;;;12.92;100.00
12360;BME280;6244;51.460;7.090;2022-07-17T06:41:02;99499.59;;;13.11;100.00
12360;BME280;6244;51.460;7.090;2022-07-17T06:45:59;99494.28;;;13.27;100.00
12360;BME280;6244;51.460;7.090;2022-07-17T06:50:55;99515.75;;;13.49;100.00
12360;BME280;6244;51.460;7.090;2022-07-17T06:55:52;99520.19;;;13.62;100.00
12360;BME280;6244;51.460;7.090;2022-07-17T07:00:50;99513.78;;;13.80;100.00
12360;BME280;6244;51.460;7.090;2022-07-17T07:05:46;99512.56;;;14.00;99.52
12360;BME280;6244;51.460;7.090;2022-07-17T07:10:44;99521.69;;;14.36;98.24
12360;BME280;6244;51.460;7.090;2022-07-17T07:15:40;99514.59;;;14.51;96.80
12360;BME280;6244;51.460;7.090;2022-07-17T07:20:39;99507.56;;;14.78;93.63
12360;BME280;6244;51.460;7.090;2022-07-17T07:25:35;99500.47;;;15.05;89.31
12360;BME280;6244;51.460;7.090;2022-07-17T07:30:32;99502.31;;;15.30;86.20
12360;BME280;6244;51.460;7.090;2022-07-17T07:35:28;99508.53;;;15.55;81.94
12360;BME280;6244;51.460;7.090;2022-07-17T07:40:26;99509.47;;;15.79;81.07
12360;BME280;6244;51.460;7.090;2022-07-17T07:45:23;99512.19;;;16.15;79.41
12360;BME280;6244;51.460;7.090;2022-07-17T07:50:22;99530.75;;;16.52;78.13
12360;BME280;6244;51.460;7.090;2022-07-17T07:55:20;99541.66;;;16.83;73.53
12360;BME280;6244;51.460;7.090;2022-07-17T08:00:18;99547.06;;;17.29;73.68
12360;BME280;6244;51.460;7.090;2022-07-17T08:05:15;99550.97;;;17.81;69.83
12360;BME280;6244;51.460;7.090;2022-07-17T08:10:11;99562.38;;;18.28;69.35
12360;BME280;6244;51.460;7.090;2022-07-17T08:15:09;99563.69;;;19.20;64.25
12360;BME280;6244;51.460;7.090;2022-07-17T08:20:08;99587.38;;;21.25;51.61
12360;BME280;6244;51.460;7.090;2022-07-17T08:25:05;99623.13;;;25.26;39.58
12360;BME280;6244;51.460;7.090;2022-07-17T08:30:03;99647.66;;;28.80;32.99
12360;BME280;6244;51.460;7.090;2022-07-17T08:35:00;99644.94;;;29.74;28.74
12360;BME280;6244;51.460;7.090;2022-07-17T08:39:58;99660.53;;;31.31;28.06
12360;BME280;6244;51.460;7.090;2022-07-17T08:44:56;99660.19;;;32.53;26.76
12360;BME280;6244;51.460;7.090;2022-07-17T08:49:52;99658.69;;;32.83;24.58
12360;BME280;6244;51.460;7.090;2022-07-17T08:54:49;99667.66;;;33.03;26.11
12360;BME280;6244;51.460;7.090;2022-07-17T08:59:48;99671.84;;;32.99;25.73
12360;BME280;6244;51.460;7.090;2022-07-17T09:04:52;99664.56;;;32.60;26.15
12360;BME280;6244;51.460;7.090;2022-07-17T09:09:50;99669.75;;;33.58;25.17
12360;BME280;6244;51.460;7.090;2022-07-17T09:14:48;99663.41;;;33.71;24.21
12360;BME280;6244;51.460;7.090;2022-07-17T09:19:45;99657.25;;;32.87;25.05
12360;BME280;6244;51.460;7.090;2022-07-17T09:24:45;99664.16;;;33.53;23.51
12360;BME280;6244;51.460;7.090;2022-07-17T09:29:54;99645.28;;;33.01;25.02
12360;BME280;6244;51.460;7.090;2022-07-17T09:34:53;99657.50;;;32.40;24.31
12360;BME280;6244;51.460;7.090;2022-07-17T09:39:50;99645.22;;;31.10;24.86
12360;BME280;6244;51.460;7.090;2022-07-17T09:44:58;99651.09;;;31.74;25.26
12360;BME280;6244;51.460;7.090;2022-07-17T09:49:56;99653.25;;;32.76;24.52
12360;BME280;6244;51.460;7.090;2022-07-17T09:54:54;99648.97;;;31.09;24.28
12360;BME280;6244;51.460;7.090;2022-07-17T09:59:53;99637.13;;;30.07;25.45
12360;BME280;6244;51.460;7.090;2022-07-17T10:04:51;99630.81;;;28.93;27.00
12360;BME280;6244;51.460;7.090;2022-07-17T10:09:48;99628.41;;;29.62;27.31
12360;BME280;6244;51.460;7.090;2022-07-17T10:14:47;99647.44;;;32.21;24.60
12360;BME280;6244;51.460;7.090;2022-07-17T10:19:46;99665.47;;;34.13;23.82
12360;BME280;6244;51.460;7.090;2022-07-17T10:24:46;99668.41;;;33.74;22.34
12360;BME280;6244;51.460;7.090;2022-07-17T10:29:44;99658.66;;;31.92;24.22
12360;BME280;6244;51.460;7.090;2022-07-17T10:34:43;99665.47;;;33.38;24.27
12360;BME280;6244;51.460;7.090;2022-07-17T10:39:40;99661.19;;;34.23;23.34
12360;BME280;6244;51.460;7.090;2022-07-17T10:44:49;99666.41;;;34.56;22.26
12360;BME280;6244;51.460;7.090;2022-07-17T10:49:46;99664.63;;;34.43;21.24
12360;BME280;6244;51.460;7.090;2022-07-17T10:54:43;99649.56;;;33.35;22.84
12360;BME280;6244;51.460;7.090;2022-07-17T10:59:41;99654.13;;;33.85;22.57
12360;BME280;6244;51.460;7.090;2022-07-17T11:04:39;99654.28;;;33.59;23.25
12360;BME280;6244;51.460;7.090;2022-07-17T11:09:46;99640.94;;;32.80;24.54
12360;BME280;6244;51.460;7.090;2022-07-17T11:14:44;99638.66;;;32.19;25.11
12360;BME280;6244;51.460;7.090;2022-07-17T11:19:42;99631.72;;;30.55;23.67
12360;BME280;6244;51.460;7.090;2022-07-17T11:24:40;99630.91;;;30.55;23.21
12360;BME280;6244;51.460;7.090;2022-07-17T11:29:37;99626.63;;;30.67;24.72
12360;BME280;6244;51.460;7.090;2022-07-17T11:34:35;99628.75;;;31.59;23.78
12360;BME280;6244;51.460;7.090;2022-07-17T11:39:39;99622.59;;;32.24;23.10
12360;BME280;6244;51.460;7.090;2022-07-17T11:44:36;99625.72;;;32.73;23.71
12360;BME280;6244;51.460;7.090;2022-07-17T11:49:34;99622.41;;;32.45;23.68
12360;BME280;6244;51.460;7.090;2022-07-17T11:54:31;99612.38;;;32.32;23.82
12360;BME280;6244;51.460;7.090;2022-07-17T11:59:31;99623.22;;;32.65;23.61
12360;BME280;6244;51.460;7.090;2022-07-17T12:04:28;99614.19;;;31.80;22.78
12360;BME280;6244;51.460;7.090;2022-07-17T12:09:26;99604.19;;;31.80;22.74
12360;BME280;6244;51.460;7.090;2022-07-17T12:14:22;99601.34;;;30.81;24.85
12360;BME280;6244;51.460;7.090;2022-07-17T12:19:23;99594.75;;;30.35;26.13
12360;BME280;6244;51.460;7.090;2022-07-17T12:24:22;99584.41;;;29.54;27.09
12360;BME280;6244;51.460;7.090;2022-07-17T12:29:19;99565.13;;;28.57;28.10
12360;BME280;6244;51.460;7.090;2022-07-17T12:34:16;99563.03;;;28.15;27.99
12360;BME280;6244;51.460;7.090;2022-07-17T12:39:14;99557.94;;;27.60;30.19
12360;BME280;6244;51.460;7.090;2022-07-17T12:44:10;99554.41;;;27.60;32.01
12360;BME280;6244;51.460;7.090;2022-07-17T12:49:07;99549.78;;;27.23;30.85
12360;BME280;6244;51.460;7.090;2022-07-17T12:54:03;99547.94;;;26.46;32.33
12360;BME280;6244;51.460;7.090;2022-07-17T12:59:02;99550.91;;;26.68;32.10
12360;BME280;6244;51.460;7.090;2022-07-17T13:03:58;99543.06;;;26.50;31.22
12360;BME280;6244;51.460;7.090;2022-07-17T13:08:55;99531.78;;;25.52;31.46
12360;BME280;6244;51.460;7.090;2022-07-17T13:13:51;99530.44;;;24.90;33.69
12360;BME280;6244;51.460;7.090;2022-07-17T13:18:49;99531.53;;;26.17;33.57
12360;BME280;6244;51.460;7.090;2022-07-17T13:23:45;99525.38;;;25.93;32.85
12360;BME280;6244;51.460;7.090;2022-07-17T13:28:42;99530.63;;;26.49;31.58
12360;BME280;6244;51.460;7.090;2022-07-17T13:33:38;99536.44;;;26.61;31.10
12360;BME280;6244;51.460;7.090;2022-07-17T13:38:36;99536.38;;;26.85;30.95
12360;BME280;6244;51.460;7.090;2022-07-17T13:43:33;99526.00;;;27.04;32.10
12360;BME280;6244;51.460;7.090;2022-07-17T13:48:29;99519.78;;;27.04;30.77
12360;BME280;6244;51.460;7.090;2022-07-17T13:53:26;99522.56;;;26.49;29.82
12360;BME280;6244;51.460;7.090;2022-07-17T13:58:26;99508.41;;;26.63;30.91
12360;BME280;6244;51.460;7.090;2022-07-17T14:03:22;99515.97;;;26.60;29.29
12360;BME280;6244;51.460;7.090;2022-07-17T14:08:19;99510.00;;;26.33;29.72
12360;BME280;6244;51.460;7.090;2022-07-17T14:13:16;99507.34;;;26.17;29.52
12360;BME280;6244;51.460;7.090;2022-07-17T14:18:14;99511.00;;;26.40;28.50
12360;BME280;6244;51.460;7.090;2022-07-17T14:23:11;99501.63;;;26.75;28.77
12360;BME280;6244;51.460;7.090;2022-07-17T14:28:07;99497.69;;;26.86;28.53
12360;BME280;6244;51.460;7.090;2022-07-17T14:33:04;99490.31;;;26.49;28.27
12360;BME280;6244;51.460;7.090;2022-07-17T14:38:02;99495.69;;;26.49;27.93
12360;BME280;6244;51.460;7.090;2022-07-17T14:43:01;99481.56;;;26.47;29.03
12360;BME280;6244;51.460;7.090;2022-07-17T14:47:57;99459.75;;;25.31;28.40
12360;BME280;6244;51.460;7.090;2022-07-17T14:52:54;99459.59;;;25.17;30.45
12360;BME280;6244;51.460;7.090;2022-07-17T14:57:52;99458.09;;;25.62;30.72
12360;BME280;6244;51.460;7.090;2022-07-17T15:02:48;99449.88;;;25.72;29.81
12360;BME280;6244;51.460;7.090;2022-07-17T15:07:45;99438.81;;;25.67;30.01
12360;BME280;6244;51.460;7.090;2022-07-17T15:12:42;99444.34;;;25.57;27.34
12360;BME280;6244;51.460;7.090;2022-07-17T15:17:40;99438.47;;;25.78;29.55
12360;BME280;6244;51.460;7.090;2022-07-17T15:22:36;99436.63;;;25.62;29.11
12360;BME280;6244;51.460;7.090;2022-07-17T15:27:33;99427.72;;;25.54;31.07
12360;BME280;6244;51.460;7.090;2022-07-17T15:32:29;99439.78;;;25.74;30.71
12360;BME280;6244;51.460;7.090;2022-07-17T15:37:29;99433.44;;;25.59;30.58
12360;BME280;6244;51.460;7.090;2022-07-17T15:42:26;99427.09;;;25.36;29.23
12360;BME280;6244;51.460;7.090;2022-07-17T15:47:23;99433.31;;;25.36;29.33
12360;BME280;6244;51.460;7.090;2022-07-17T15:52:20;99438.47;;;25.62;29.52
12360;BME280;6244;51.460;7.090;2022-07-17T15:57:17;99429.06;;;25.66;30.80
12360;BME280;6244;51.460;7.090;2022-07-17T16:02:14;99411.28;;;25.57;30.38
12360;BME280;6244;51.460;7.090;2022-07-17T16:07:10;99417.03;;;25.38;30.82
12360;BME280;6244;51.460;7.090;2022-07-17T16:12:07;99413.16;;;25.24;30.35
12360;BME280;6244;51.460;7.090;2022-07-17T16:17:05;99403.63;;;24.98;30.59
12360;BME280;6244;51.460;7.090;2022-07-17T16:22:02;99396.72;;;24.79;31.87
12360;BME280;6244;51.460;7.090;2022-07-17T16:26:58;99393.19;;;24.87;32.29
12360;BME280;6244;51.460;7.090;2022-07-17T16:31:55;99384.97;;;24.72;32.27
12360;BME280;6244;51.460;7.090;2022-07-17T16:36:53;99371.16;;;24.43;32.70
12360;BME280;6244;51.460;7.090;2022-07-17T16:41:50;99368.25;;;24.20;33.64
12360;BME280;6244;51.460;7.090;2022-07-17T16:46:46;99363.53;;;24.14;33.21
12360;BME280;6244;51.460;7.090;2022-07-17T16:51:43;99357.31;;;24.06;34.88
12360;BME280;6244;51.460;7.090;2022-07-17T16:56:41;99365.94;;;23.92;33.85
12360;BME280;6244;51.460;7.090;2022-07-17T17:01:38;99351.19;;;23.88;36.20
12360;BME280;6244;51.460;7.090;2022-07-17T17:06:35;99345.00;;;23.87;36.20
12360;BME280;6244;51.460;7.090;2022-07-17T17:11:31;99339.44;;;23.73;35.05
12360;BME280;6244;51.460;7.090;2022-07-17T17:16:30;99333.00;;;23.58;34.10
12360;BME280;6244;51.460;7.090;2022-07-17T17:21:26;99331.38;;;23.39;36.31
12360;BME280;6244;51.460;7.090;2022-07-17T17:26:23;99326.34;;;23.10;38.69
12360;BME280;6244;51.460;7.090;2022-07-17T17:31:19;99313.38;;;22.98;37.73
12360;BME280;6244;51.460;7.090;2022-07-17T17:36:17;99305.25;;;22.82;38.55
12360;BME280;6244;51.460;7.090;2022-07-17T17:41:14;99293.75;;;22.64;40.63
12360;BME280;6244;51.460;7.090;2022-07-17T17:46:10;99273.44;;;21.47;64.87
12360;BME280;6244;51.460;7.090;2022-07-17T17:51:07;99264.56;;;19.17;100.00
12360;BME280;6244;51.460;7.090;2022-07-17T17:56:06;99250.66;;;18.54;100.00
12360;BME280;6244;51.460;7.090;2022-07-17T18:01:04;99256.47;;;18.68;100.00
12360;BME280;6244;51.460;7.090;2022-07-17T18:06:01;99258.75;;;18.52;100.00
12360;BME280;6244;51.460;7.090;2022-07-17T18:10:58;99264.72;;;18.45;100.00
12360;BME280;6244;51.460;7.090;2022-07-17T18:15:56;99265.91;;;18.41;100.00
12360;BME280;6244;51.460;7.090;2022-07-17T18:20:53;99276.28;;;18.44;100.00
12360;BME280;6244;51.460;7.090;2022-07-17T18:25:50;99283.69;;;18.29;100.00
12360;BME280;6244;51.460;7.090;2022-07-17T18:30:50;99293.22;;;18.21;100.00
12360;BME280;6244;51.460;7.090;2022-07-17T18:35:48;99298.53;;;18.21;100.00
12360;BME280;6244;51.460;7.090;2022-07-17T18:40:45;99311.53;;;18.24;100.00
12360;BME280;6244;51.460;7.090;2022-07-17T18:45:41;99315.63;;;18.28;100.00
12360;BME280;6244;51.460;7.090;2022-07-17T18:50:38;99306.91;;;18.37;83.80
12360;BME280;6244;51.460;7.090;2022-07-17T18:55:36;99309.44;;;18.49;79.40
12360;BME280;6244;51.460;7.090;2022-07-17T19:00:33;99292.28;;;18.53;80.87
12360;BME280;6244;51.460;7.090;2022-07-17T19:05:31;99292.78;;;18.47;76.12
12360;BME280;6244;51.460;7.090;2022-07-17T19:10:27;99295.22;;;18.39;74.73
12360;BME280;6244;51.460;7.090;2022-07-17T19:15:27;99301.78;;;18.24;72.20
12360;BME280;6244;51.460;7.090;2022-07-17T19:20:25;99305.66;;;18.20;76.58
12360;BME280;6244;51.460;7.090;2022-07-17T19:25:22;99303.44;;;18.25;77.34
12360;BME280;6244;51.460;7.090;2022-07-17T19:30:18;99310.72;;;18.23;77.26
12360;BME280;6244;51.460;7.090;2022-07-17T19:35:16;99329.78;;;18.17;76.85
12360;BME280;6244;51.460;7.090;2022-07-17T19:40:14;99322.22;;;18.02;73.39
12360;BME280;6244;51.460;7.090;2022-07-17T19:45:11;99318.03;;;17.88;76.97
12360;BME280;6244;51.460;7.090;2022-07-17T19:50:07;99311.31;;;17.84;73.99
12360;BME280;6244;51.460;7.090;2022-07-17T19:55:07;99319.88;;;17.76;75.14
12360;BME280;6244;51.460;7.090;2022-07-17T20:00:05;99329.88;;;17.62;78.61
12360;BME280;6244;51.460;7.090;2022-07-17T20:05:02;99344.22;;;17.48;78.22
12360;BME280;6244;51.460;7.090;2022-07-17T20:09:58;99336.53;;;17.45;76.27
12360;BME280;6244;51.460;7.090;2022-07-17T20:14:56;99334.19;;;17.41;76.31
12360;BME280;6244;51.460;7.090;2022-07-17T20:19:53;99329.00;;;17.28;77.65
12360;BME280;6244;51.460;7.090;2022-07-17T20:24:50;99330.09;;;17.26;76.32
12360;BME280;6244;51.460;7.090;2022-07-17T20:29:47;99328.66;;;17.22;77.18
12360;BME280;6244;51.460;7.090;2022-07-17T20:34:45;99326.84;;;17.22;77.61
12360;BME280;6244;51.460;7.090;2022-07-17T20:39:41;99335.75;;;17.21;77.42
12360;BME280;6244;51.460;7.090;2022-07-17T20:44:38;99335.97;;;17.07;77.09
12360;BME280;6244;51.460;7.090;2022-07-17T20:49:34;99326.84;;;17.00;71.59
12360;BME280;6244;51.460;7.090;2022-07-17T20:54:32;99320.44;;;16.92;71.10
12360;BME280;6244;51.460;7.090;2022-07-17T20:59:29;99320.09;;;16.96;71.98
12360;BME280;6244;51.460;7.090;2022-07-17T21:04:25;99325.50;;;16.95;74.37
12360;BME280;6244;51.460;7.090;2022-07-17T21:09:22;99318.13;;;16.76;75.53
12360;BME280;6244;51.460;7.090;2022-07-17T21:14:20;99316.75;;;16.60;75.35
12360;BME280;6244;51.460;7.090;2022-07-17T21:19:16;99319.47;;;16.47;70.98
12360;BME280;6244;51.460;7.090;2022-07-17T21:24:13;99316.75;;;16.36;68.63
12360;BME280;6244;51.460;7.090;2022-07-17T21:29:10;99316.72;;;16.25;68.71
12360;BME280;6244;51.460;7.090;2022-07-17T21:34:07;99316.53;;;16.15;70.61
12360;BME280;6244;51.460;7.090;2022-07-17T21:39:04;99322.41;;;16.08;69.84
12360;BME280;6244;51.460;7.090;2022-07-17T21:44:00;99310.69;;;15.99;72.00
12360;BME280;6244;51.460;7.090;2022-07-17T21:48:57;99316.53;;;15.92;70.80
12360;BME280;6244;51.460;7.090;2022-07-17T21:53:55;99307.66;;;15.93;70.98
12360;BME280;6244;51.460;7.090;2022-07-17T21:58:52;99312.66;;;15.85;71.53
12360;BME280;6244;51.460;7.090;2022-07-17T22:03:49;99305.81;;;15.82;72.70
12360;BME280;6244;51.460;7.090;2022-07-17T22:08:46;99300.09;;;15.76;71.93
12360;BME280;6244;51.460;7.090;2022-07-17T22:13:44;99287.53;;;15.79;71.43
12360;BME280;6244;51.460;7.090;2022-07-17T22:18:41;99284.06;;;15.66;73.65
12360;BME280;6244;51.460;7.090;2022-07-17T22:23:38;99289.19;;;15.57;72.88
12360;BME280;6244;51.460;7.090;2022-07-17T22:28:35;99282.66;;;15.37;75.08
12360;BME280;6244;51.460;7.090;2022-07-17T22:33:33;99284.56;;;15.23;75.42
12360;BME280;6244;51.460;7.090;2022-07-17T22:38:30;99276.97;;;15.18;75.76
12360;BME280;6244;51.460;7.090;2022-07-17T22:43:26;99278.75;;;15.18;75.78
12360;BME280;6244;51.460;7.090;2022-07-17T22:48:23;99279.94;;;15.14;75.70
12360;BME280;6244;51.460;7.090;2022-07-17T22:53:22;99277.84;;;15.06;75.42
12360;BME280;6244;51.460;7.090;2022-07-17T22:58:18;99276.28;;;15.04;75.35
12360;BME280;6244;51.460;7.090;2022-07-17T23:03:15;99270.56;;;14.97;75.18
12360;BME280;6244;51.460;7.090;2022-07-17T23:08:12;99267.59;;;14.89;74.31
12360;BME280;6244;51.460;7.090;2022-07-17T23:13:10;99269.84;;;14.83;72.53
12360;BME280;6244;51.460;7.090;2022-07-17T23:18:06;99268.78;;;14.73;72.85
12360;BME280;6244;51.460;7.090;2022-07-17T23:23:03;99271.19;;;14.51;68.91
12360;BME280;6244;51.460;7.090;2022-07-17T23:27:59;99266.44;;;14.43;67.11
12360;BME280;6244;51.460;7.090;2022-07-17T23:32:57;99269.47;;;14.49;71.59
12360;BME280;6244;51.460;7.090;2022-07-17T23:37:54;99271.41;;;14.48;70.76
12360;BME280;6244;51.460;7.090;2022-07-17T23:42:50;99269.50;;;14.37;69.93
12360;BME280;6244;51.460;7.090;2022-07-17T23:47:47;99268.84;;;14.33;71.92
12360;BME280;6244;51.460;7.090;2022-07-17T23:52:45;99267.88;;;14.34;71.98
12360;BME280;6244;51.460;7.090;2022-07-17T23:57:41;99262.81;;;14.31;72.13
